TimeEDT,TemperatureF,Dew PointF,Humidity,Sea Level PressureIn,VisibilityMPH,Wind Direction,Wind SpeedMPH,Gust SpeedMPH,PrecipitationIn,Events,Conditions,WindDirDegrees,DateUTC
12:53 AM,46.9,37.0,68,30.14,10.0,Calm,Calm,-,N/A,,Overcast,0,2013-05-13 04:53:00
1:53 AM,45.0,36.0,71,30.14,10.0,North,4.6,-,N/A,,Overcast,360,2013-05-13 05:53:00
2:53 AM,41.0,37.9,89,30.13,10.0,Calm,Calm,-,N/A,,Scattered Clouds,0,2013-05-13 06:53:00
3:53 AM,39.9,37.0,89,30.14,10.0,Calm,Calm,-,N/A,,Overcast,0,2013-05-13 07:53:00
4:53 AM,39.9,37.9,93,30.14,10.0,Calm,Calm,-,N/A,,Overcast,0,2013-05-13 08:53:00
5:53 AM,39.0,37.0,93,30.14,10.0,Calm,Calm,-,N/A,,Mostly Cloudy,0,2013-05-13 09:53:00
6:53 AM,37.0,35.1,93,30.15,10.0,Calm,Calm,-,N/A,,Clear,0,2013-05-13 10:53:00
7:53 AM,42.1,39.0,89,30.17,10.0,Calm,Calm,-,N/A,,Clear,0,2013-05-13 11:53:00
8:53 AM,50.0,37.0,61,30.18,10.0,Variable,4.6,-,N/A,,Clear,0,2013-05-13 12:53:00
9:53 AM,52.0,37.0,57,30.19,10.0,Variable,4.6,-,N/A,,Clear,0,2013-05-13 13:53:00
10:53 AM,55.9,37.0,49,30.19,10.0,Variable,3.5,-,N/A,,Clear,0,2013-05-13 14:53:00
11:53 AM,57.0,30.0,36,30.20,10.0,NW,13.8,18.4,N/A,,Scattered Clouds,310,2013-05-13 15:53:00
12:53 PM,57.9,30.9,36,30.19,10.0,NW,13.8,20.7,N/A,,Scattered Clouds,310,2013-05-13 16:53:00
1:53 PM,59.0,30.0,33,30.19,10.0,WNW,11.5,21.9,N/A,,Mostly Cloudy,290,2013-05-13 17:53:00
2:53 PM,61.0,30.0,31,30.19,10.0,WNW,13.8,20.7,N/A,,Mostly Cloudy,290,2013-05-13 18:53:00
4:53 PM,62.1,32.0,32,30.16,10.0,WNW,9.2,19.6,N/A,,Clear,290,2013-05-13 20:53:00
5:53 PM,61.0,30.0,31,30.15,10.0,WNW,12.7,17.3,N/A,,Clear,300,2013-05-13 21:53:00
6:53 PM,61.0,28.0,29,30.15,10.0,WNW,10.4,17.3,N/A,,Clear,300,2013-05-13 22:53:00
8:53 PM,48.9,39.9,71,30.17,10.0,Calm,Calm,-,N/A,,Clear,0,2013-05-14 00:53:00
9:53 PM,45.0,37.9,76,30.17,10.0,Calm,Calm,-,N/A,,Clear,0,2013-05-14 01:53:00
10:53 PM,43.0,39.0,86,30.17,10.0,Calm,Calm,-,N/A,,Clear,0,2013-05-14 02:53:00
11:53 PM,42.1,37.9,85,30.16,10.0,Calm,Calm,-,N/A,,Clear,0,2013-05-14 03:53:00